createdAt,value
2018-03-23T00:00:51.692Z,47.33
2018-03-23T00:03:17.755Z,47.35
2018-03-23T00:05:43.720Z,47.51
2018-03-23T00:08:09.676Z,47.26
2018-03-23T00:10:35.637Z,47.06
2018-03-23T00:13:01.605Z,47.44
2018-03-23T00:15:27.561Z,47.21
2018-03-23T00:17:53.530Z,47.53
2018-03-23T00:20:19.485Z,47.55
2018-03-23T00:22:45.446Z,47.48
2018-03-23T00:25:11.423Z,47.66
2018-03-23T00:27:37.401Z,47.43
2018-03-23T00:30:03.338Z,47.42
2018-03-23T00:32:29.309Z,47.55
2018-03-23T00:34:55.294Z,47.51
2018-03-23T00:37:21.259Z,47.79
2018-03-23T00:39:47.230Z,47.51
2018-03-23T00:42:13.207Z,47.35
2018-03-23T00:44:39.177Z,47.52
2018-03-23T00:47:05.134Z,47.78
2018-03-23T00:49:31.192Z,47.54
2018-03-23T00:51:57.146Z,47.47
2018-03-23T00:54:23.099Z,47.49
2018-03-23T00:56:49.046Z,47.68
2018-03-23T00:59:15.023Z,47.47
2018-03-23T01:01:40.998Z,47.57
2018-03-23T01:04:06.995Z,47.42
2018-03-23T01:06:33.002Z,47.31
2018-03-23T01:08:58.929Z,47.50
2018-03-23T01:11:24.882Z,47.74
2018-03-23T01:13:50.831Z,47.49
2018-03-23T01:16:16.783Z,47.26
2018-03-23T01:18:42.757Z,47.82
2018-03-23T01:21:08.717Z,47.48
2018-03-23T01:23:34.733Z,47.73
2018-03-23T01:26:00.690Z,47.73
2018-03-23T01:28:26.652Z,47.54
2018-03-23T01:30:52.633Z,47.89
2018-03-23T01:33:18.599Z,47.75
2018-03-23T01:35:44.583Z,47.86
2018-03-23T01:38:10.543Z,47.75
2018-03-23T01:40:36.519Z,47.58
2018-03-23T01:43:02.469Z,47.47
2018-03-23T01:45:28.459Z,47.72
2018-03-23T01:47:54.439Z,47.47
2018-03-23T01:50:20.401Z,47.58
2018-03-23T01:52:46.390Z,47.50
2018-03-23T01:55:12.346Z,47.49
2018-03-23T01:57:38.314Z,47.64
2018-03-23T02:00:04.293Z,47.78
2018-03-23T02:02:30.256Z,47.47
2018-03-23T02:04:56.234Z,47.45
2018-03-23T02:07:22.195Z,47.62
2018-03-23T02:09:48.191Z,47.39
2018-03-23T02:12:14.150Z,47.54
2018-03-23T02:14:40.125Z,47.56
2018-03-23T02:17:06.081Z,47.45
2018-03-23T02:19:32.046Z,47.49
2018-03-23T02:21:58.017Z,47.36
2018-03-23T02:24:23.957Z,47.65
2018-03-23T02:26:49.957Z,47.64
2018-03-23T02:29:15.922Z,47.70
2018-03-23T02:31:41.922Z,47.65
2018-03-23T02:34:07.879Z,47.72
2018-03-23T02:36:33.832Z,47.40
2018-03-23T02:38:59.790Z,47.58
2018-03-23T02:41:25.764Z,47.63
2018-03-23T02:43:51.742Z,47.29
2018-03-23T02:46:17.719Z,47.88
2018-03-23T02:48:43.683Z,47.45
2018-03-23T02:51:09.654Z,47.55
2018-03-23T02:53:35.700Z,47.51
2018-03-23T02:56:01.665Z,47.64
2018-03-23T02:58:27.629Z,47.78
2018-03-23T03:00:53.611Z,47.48
2018-03-23T03:03:19.573Z,47.78
2018-03-23T03:05:45.547Z,47.22
2018-03-23T03:08:11.512Z,47.56
2018-03-23T03:10:37.462Z,47.60
2018-03-23T03:13:03.411Z,47.69
2018-03-23T03:15:29.374Z,47.51
2018-03-23T03:17:55.338Z,47.78
2018-03-23T03:20:21.317Z,47.58
2018-03-23T03:22:47.293Z,47.57
2018-03-23T03:25:13.258Z,47.38
2018-03-23T03:27:39.215Z,47.60
2018-03-23T03:30:05.177Z,47.95
2018-03-23T03:32:31.169Z,47.42
2018-03-23T03:34:57.150Z,47.08
2018-03-23T03:37:23.123Z,46.70
2018-03-23T03:39:49.130Z,46.73
2018-03-23T03:42:15.085Z,46.44
2018-03-23T03:44:41.106Z,46.25
2018-03-23T03:47:07.057Z,45.96
2018-03-23T03:49:33.039Z,46.34
2018-03-23T03:51:59.008Z,46.36
2018-03-23T03:54:24.984Z,45.87
2018-03-23T03:56:50.934Z,46.15
2018-03-23T03:59:16.885Z,46.19
2018-03-23T04:01:42.870Z,46.25
2018-03-23T04:04:08.824Z,45.96
2018-03-23T04:06:34.843Z,45.84
2018-03-23T04:09:00.798Z,46.12
2018-03-23T04:11:26.782Z,45.91
2018-03-23T04:13:52.753Z,45.99
2018-03-23T04:16:18.947Z,46.14
2018-03-23T04:18:44.917Z,46.28
2018-03-23T04:21:10.890Z,45.99
2018-03-23T04:23:36.843Z,46.08
2018-03-23T04:26:02.800Z,46.25
2018-03-23T04:28:28.772Z,46.14
2018-03-23T04:30:54.750Z,46.01
2018-03-23T04:33:20.706Z,46.09
2018-03-23T04:35:46.687Z,46.32
2018-03-23T04:38:12.738Z,46.21
2018-03-23T04:40:38.674Z,46.13
2018-03-23T04:43:04.631Z,46.23
2018-03-23T04:45:30.609Z,46.21
2018-03-23T04:47:56.584Z,46.47
2018-03-23T04:50:22.534Z,46.33
2018-03-23T04:52:48.514Z,46.26
2018-03-23T04:55:14.488Z,46.38
2018-03-23T04:57:40.438Z,46.56
2018-03-23T05:00:06.395Z,46.77
2018-03-23T05:02:32.355Z,46.54
2018-03-23T05:04:58.310Z,46.63
2018-03-23T05:07:24.289Z,46.81
2018-03-23T05:09:50.267Z,47.39
2018-03-23T05:12:16.254Z,46.96
2018-03-23T05:14:42.169Z,46.84
2018-03-23T05:17:08.126Z,46.90
2018-03-23T05:19:34.081Z,46.84
2018-03-23T05:22:00.075Z,46.39
2018-03-23T05:24:26.022Z,46.24
2018-03-23T05:26:52.069Z,46.36
2018-03-23T05:29:18.060Z,46.67
2018-03-23T05:31:44.006Z,46.90
2018-03-23T05:34:09.958Z,46.55
2018-03-23T05:36:35.960Z,46.63
2018-03-23T05:39:01.925Z,46.65
2018-03-23T05:41:27.895Z,46.69
2018-03-23T05:43:53.859Z,46.51
2018-03-23T05:46:19.887Z,46.68
2018-03-23T05:48:45.797Z,46.55
2018-03-23T05:51:11.759Z,46.55
2018-03-23T05:53:37.722Z,46.79
2018-03-23T05:56:03.726Z,46.78
2018-03-23T05:58:29.694Z,46.67
2018-03-23T06:00:55.677Z,46.75
2018-03-23T06:03:21.655Z,46.75
2018-03-23T06:05:47.662Z,46.66
2018-03-23T06:08:13.819Z,46.83
2018-03-23T06:10:39.819Z,46.69
2018-03-23T06:13:05.778Z,46.75
2018-03-23T06:15:31.739Z,46.57
2018-03-23T06:17:57.688Z,46.24
2018-03-23T06:20:23.714Z,46.16
2018-03-23T06:22:49.741Z,46.25
2018-03-23T06:25:15.695Z,46.29
2018-03-23T06:27:41.642Z,46.06
2018-03-23T06:30:07.599Z,46.19
2018-03-23T06:32:33.572Z,46.44
2018-03-23T06:34:59.546Z,46.18
2018-03-23T06:37:25.543Z,46.05
2018-03-23T06:39:51.509Z,46.02
2018-03-23T06:42:17.478Z,46.45
2018-03-23T06:44:43.429Z,46.25
2018-03-23T06:47:09.442Z,46.28
2018-03-23T06:49:35.357Z,46.32
2018-03-23T06:52:01.331Z,46.37
2018-03-23T06:54:27.352Z,46.34
2018-03-23T06:56:53.281Z,46.55
2018-03-23T06:59:19.250Z,46.40
2018-03-23T07:01:45.211Z,46.48
2018-03-23T07:04:11.174Z,46.47
2018-03-23T07:06:37.172Z,46.56
2018-03-23T07:09:03.130Z,46.61
2018-03-23T07:11:29.085Z,46.56
2018-03-23T07:13:55.046Z,46.29
2018-03-23T07:16:20.992Z,46.43
2018-03-23T07:18:46.992Z,46.47
2018-03-23T07:21:12.899Z,46.10
2018-03-23T07:23:38.882Z,46.37
2018-03-23T07:26:04.830Z,46.38
2018-03-23T07:28:30.807Z,46.57
2018-03-23T07:30:56.766Z,46.63
2018-03-23T07:33:22.718Z,46.35
2018-03-23T07:35:48.677Z,46.23
2018-03-23T07:38:14.657Z,46.43
2018-03-23T07:40:40.606Z,46.57
2018-03-23T07:43:06.592Z,46.52
2018-03-23T07:45:32.551Z,46.58
2018-03-23T07:47:58.502Z,46.46
2018-03-23T07:50:24.461Z,46.54
2018-03-23T07:52:50.425Z,46.67
2018-03-23T07:55:16.374Z,46.48
2018-03-23T07:57:42.351Z,46.47
2018-03-23T08:00:08.306Z,46.53
2018-03-23T08:02:34.270Z,46.47
2018-03-23T08:05:00.323Z,46.52
2018-03-23T08:07:26.261Z,46.49
2018-03-23T08:09:52.343Z,46.49
2018-03-23T08:12:18.308Z,46.56
2018-03-23T08:14:44.282Z,46.44
2018-03-23T08:17:10.256Z,46.49
2018-03-23T08:19:36.290Z,46.43
2018-03-23T08:22:02.254Z,46.33
2018-03-23T08:24:28.235Z,46.46
2018-03-23T08:26:54.193Z,46.40
2018-03-23T08:29:20.151Z,46.34
2018-03-23T08:31:46.162Z,46.12
2018-03-23T08:34:12.134Z,46.34
2018-03-23T08:36:38.094Z,46.68
2018-03-23T08:39:04.077Z,46.47
2018-03-23T08:41:30.055Z,46.27
2018-03-23T08:43:56.068Z,46.35
2018-03-23T08:46:22.028Z,46.35
2018-03-23T08:48:47.989Z,46.35
2018-03-23T08:51:13.942Z,46.47
2018-03-23T08:53:39.924Z,46.40
2018-03-23T08:56:05.899Z,47.07
2018-03-23T08:58:31.844Z,46.41
2018-03-23T09:00:57.818Z,46.39
2018-03-23T09:03:23.769Z,46.47
2018-03-23T09:05:49.734Z,46.51
2018-03-23T09:08:15.706Z,46.44
2018-03-23T09:10:41.695Z,46.57
2018-03-23T09:13:07.674Z,46.39
2018-03-23T09:15:33.674Z,46.38
2018-03-23T09:17:59.622Z,46.60
2018-03-23T09:20:25.585Z,46.59
2018-03-23T09:22:51.546Z,46.66
2018-03-23T09:25:17.534Z,46.75
2018-03-23T09:27:43.562Z,46.65
2018-03-23T09:30:09.509Z,46.66
2018-03-23T09:32:35.477Z,46.73
2018-03-23T09:35:01.449Z,47.13
2018-03-23T09:37:27.418Z,46.93
2018-03-23T09:39:53.394Z,46.91
2018-03-23T09:42:19.366Z,46.85
2018-03-23T09:44:45.324Z,46.97
2018-03-23T09:47:11.306Z,46.86
2018-03-23T09:49:37.262Z,46.98
2018-03-23T09:52:03.224Z,46.93
2018-03-23T09:54:29.187Z,46.87
2018-03-23T09:56:55.152Z,47.09
2018-03-23T09:59:21.122Z,47.10
2018-03-23T10:01:47.238Z,47.01
2018-03-23T10:04:13.309Z,46.94
2018-03-23T10:06:39.266Z,46.75
2018-03-23T10:09:05.247Z,46.75
2018-03-23T10:11:31.210Z,46.69
2018-03-23T10:13:57.194Z,47.22
2018-03-23T10:16:23.165Z,46.70
2018-03-23T10:18:49.132Z,46.90
2018-03-23T10:21:15.107Z,46.84
2018-03-23T10:23:41.027Z,46.85
2018-03-23T10:26:07.027Z,46.98
2018-03-23T10:28:32.997Z,46.91
2018-03-23T10:30:59.089Z,47.04
2018-03-23T10:33:25.078Z,46.82
2018-03-23T10:35:51.079Z,47.42
2018-03-23T10:38:17.082Z,47.31
2018-03-23T10:40:43.065Z,47.70
2018-03-23T10:43:09.010Z,47.73
2018-03-23T10:45:34.949Z,48.05
2018-03-23T10:48:00.969Z,48.23
2018-03-23T10:50:26.922Z,47.91
2018-03-23T10:52:52.925Z,47.88
2018-03-23T10:55:18.923Z,47.93
2018-03-23T10:57:44.874Z,48.47
2018-03-23T11:00:10.811Z,48.67
2018-03-23T11:02:36.967Z,48.40
2018-03-23T11:05:02.942Z,48.58
2018-03-23T11:07:28.959Z,48.31
2018-03-23T11:09:54.914Z,48.54
2018-03-23T11:12:20.962Z,49.02
2018-03-23T11:14:47.022Z,48.38
2018-03-23T11:17:13.066Z,48.66
2018-03-23T11:19:39.026Z,48.44
2018-03-23T11:22:04.994Z,48.70
2018-03-23T11:24:31.012Z,48.36
2018-03-23T11:26:56.946Z,48.25
2018-03-23T11:29:22.915Z,48.07
2018-03-23T11:31:48.853Z,47.79
2018-03-23T11:34:14.826Z,47.81
2018-03-23T11:36:40.798Z,47.76
2018-03-23T11:39:06.745Z,47.67
2018-03-23T11:41:32.752Z,47.76
2018-03-23T11:43:58.722Z,47.63
2018-03-23T11:46:24.669Z,47.56
2018-03-23T11:48:50.638Z,47.54
2018-03-23T11:51:16.608Z,47.66
2018-03-23T11:53:42.553Z,47.59
2018-03-23T11:56:08.522Z,47.73
2018-03-23T11:58:34.516Z,47.85
2018-03-23T12:01:00.482Z,47.52
2018-03-23T12:03:26.478Z,47.66
2018-03-23T12:05:52.489Z,47.44
2018-03-23T12:08:18.449Z,47.42
2018-03-23T12:10:44.433Z,47.41
2018-03-23T12:13:10.402Z,47.27
2018-03-23T12:15:36.389Z,47.40
2018-03-23T12:18:02.346Z,47.23
2018-03-23T12:20:28.335Z,47.42
2018-03-23T12:22:54.314Z,47.47
2018-03-23T12:25:20.304Z,47.44
2018-03-23T12:27:46.272Z,47.30
2018-03-23T12:30:12.228Z,47.19
2018-03-23T12:32:38.210Z,47.36
2018-03-23T12:35:04.162Z,47.44
2018-03-23T12:37:30.142Z,47.31
2018-03-23T12:39:56.127Z,47.21
2018-03-23T12:42:22.113Z,47.30
2018-03-23T12:44:48.113Z,47.14
2018-03-23T12:47:14.059Z,47.41
2018-03-23T12:49:40.006Z,47.28
2018-03-23T12:52:05.961Z,47.43
2018-03-23T12:54:31.932Z,47.13
2018-03-23T12:56:57.898Z,47.25
2018-03-23T12:59:23.899Z,47.39
2018-03-23T13:01:49.886Z,47.76
2018-03-23T13:04:15.863Z,47.16
2018-03-23T13:06:41.833Z,47.48
2018-03-23T13:09:07.785Z,47.37
2018-03-23T13:11:33.887Z,47.58
2018-03-23T13:13:59.835Z,47.49
2018-03-23T13:16:25.800Z,47.63
2018-03-23T13:18:51.888Z,47.55
2018-03-23T13:21:17.877Z,47.48
2018-03-23T13:23:43.865Z,47.37
2018-03-23T13:26:09.859Z,47.37
2018-03-23T13:28:35.848Z,47.26
2018-03-23T13:31:01.811Z,47.25
2018-03-23T13:33:27.787Z,47.18
2018-03-23T13:35:53.775Z,47.27
2018-03-23T13:38:19.782Z,47.28
2018-03-23T13:40:45.757Z,47.37
2018-03-23T13:43:11.741Z,47.55
2018-03-23T13:45:37.731Z,47.50
2018-03-23T13:48:03.721Z,47.51
2018-03-23T13:50:29.839Z,47.37
2018-03-23T13:52:55.853Z,47.50
2018-03-23T13:55:21.913Z,47.39
2018-03-23T13:57:47.896Z,47.21
2018-03-23T14:00:13.881Z,47.19
2018-03-23T14:02:39.846Z,47.03
2018-03-23T14:05:05.811Z,47.15
2018-03-23T14:07:31.853Z,47.29
2018-03-23T14:09:57.843Z,47.45
2018-03-23T14:12:23.814Z,47.36
2018-03-23T14:14:49.956Z,47.47
2018-03-23T14:17:15.935Z,47.52
2018-03-23T14:19:41.887Z,47.31
2018-03-23T14:22:07.902Z,47.21
2018-03-23T14:24:33.817Z,47.13
2018-03-23T14:26:59.817Z,47.55
2018-03-23T14:29:25.832Z,47.40
2018-03-23T14:31:51.774Z,47.23
2018-03-23T14:34:17.737Z,47.12
2018-03-23T14:36:43.714Z,47.08
2018-03-23T14:39:09.721Z,47.01
2018-03-23T14:41:35.690Z,46.94
2018-03-23T14:44:01.660Z,47.13
2018-03-23T14:46:27.630Z,47.28
2018-03-23T14:48:53.618Z,47.15
2018-03-23T14:51:19.583Z,47.10
2018-03-23T14:53:45.574Z,47.07
2018-03-23T14:56:11.734Z,47.30
2018-03-23T14:58:37.680Z,47.48
2018-03-23T15:01:03.654Z,47.52
2018-03-23T15:03:29.619Z,47.32
2018-03-23T15:05:55.620Z,47.45
2018-03-23T15:08:23.048Z,47.40
2018-03-23T15:10:49.069Z,47.44
2018-03-23T15:13:15.065Z,47.41
2018-03-23T15:15:41.037Z,47.54
2018-03-23T15:18:07.016Z,47.54
2018-03-23T15:20:32.983Z,47.52
2018-03-23T15:22:58.953Z,47.41
2018-03-23T15:25:24.920Z,47.49
2018-03-23T15:27:50.884Z,47.63
2018-03-23T15:30:16.840Z,48.00
2018-03-23T15:32:42.829Z,47.99
2018-03-23T15:35:08.800Z,48.00
2018-03-23T15:37:34.759Z,47.93
2018-03-23T15:40:00.703Z,47.83
2018-03-23T15:42:26.646Z,47.87
2018-03-23T15:44:52.662Z,47.89
2018-03-23T15:47:18.614Z,47.89
2018-03-23T15:49:44.574Z,47.84
2018-03-23T15:52:10.542Z,47.69
2018-03-23T15:54:36.489Z,47.62
2018-03-23T15:57:02.448Z,47.72
2018-03-23T15:59:28.422Z,47.62
2018-03-23T16:01:54.440Z,47.55
2018-03-23T16:04:20.380Z,47.46
2018-03-23T16:06:46.329Z,47.55
2018-03-23T16:09:12.287Z,47.50
2018-03-23T16:11:38.269Z,47.53
2018-03-23T16:14:04.251Z,47.48
2018-03-23T16:16:30.214Z,47.53
2018-03-23T16:18:56.169Z,47.35
2018-03-23T16:21:22.124Z,47.41
2018-03-23T16:23:48.090Z,47.28
2018-03-23T16:26:14.067Z,47.52
2018-03-23T16:28:40.028Z,47.43
2018-03-23T16:31:06.007Z,47.42
2018-03-23T16:33:31.987Z,47.46
2018-03-23T16:35:57.958Z,47.42
2018-03-23T16:38:23.941Z,47.43
2018-03-23T16:40:49.904Z,47.26
2018-03-23T16:43:15.859Z,47.33
2018-03-23T16:45:41.872Z,47.49
2018-03-23T16:48:07.837Z,47.34
2018-03-23T16:50:33.837Z,47.31
2018-03-23T16:52:59.813Z,47.43
2018-03-23T16:55:25.909Z,47.51
2018-03-23T16:57:51.906Z,47.27
2018-03-23T17:00:17.865Z,47.24
2018-03-23T17:02:43.853Z,47.22
2018-03-23T17:05:09.811Z,47.16
2018-03-23T17:07:35.774Z,47.15
2018-03-23T17:10:01.738Z,47.06
2018-03-23T17:12:27.767Z,47.12
2018-03-23T17:14:53.725Z,47.18
2018-03-23T17:17:19.713Z,47.34
2018-03-23T17:19:45.681Z,47.57
2018-03-23T17:22:11.691Z,47.55
2018-03-23T17:24:37.646Z,47.47
2018-03-23T17:27:03.651Z,47.58
2018-03-23T17:29:29.720Z,47.49
2018-03-23T17:31:55.682Z,47.55
2018-03-23T17:34:21.770Z,47.50
2018-03-23T17:36:47.767Z,47.46
2018-03-23T17:39:13.854Z,47.52
2018-03-23T17:41:39.824Z,47.34
2018-03-23T17:44:06.046Z,47.58
2018-03-23T17:46:32.025Z,47.54
2018-03-23T17:48:58.073Z,47.62
2018-03-23T17:51:24.012Z,47.58
2018-03-23T17:53:50.279Z,47.42
2018-03-23T17:56:16.268Z,47.43
2018-03-23T17:58:42.247Z,47.50
2018-03-23T18:01:08.471Z,47.45
2018-03-23T18:03:34.535Z,47.42
2018-03-23T18:06:00.592Z,47.51
2018-03-23T18:08:26.571Z,47.42
2018-03-23T18:10:52.550Z,47.86
2018-03-23T18:13:18.534Z,47.79
2018-03-23T18:15:44.485Z,47.55
2018-03-23T18:18:10.483Z,47.62
2018-03-23T18:20:36.430Z,47.83
2018-03-23T18:23:02.430Z,47.75
2018-03-23T18:25:28.428Z,47.84
2018-03-23T18:27:54.401Z,47.72
2018-03-23T18:30:20.369Z,47.64
2018-03-23T18:32:46.350Z,47.69
2018-03-23T18:35:12.311Z,47.79
2018-03-23T18:37:38.299Z,47.87
2018-03-23T18:40:04.260Z,47.67
2018-03-23T18:42:30.293Z,47.69
2018-03-23T18:44:56.266Z,47.62
2018-03-23T18:47:22.222Z,48.13
2018-03-23T18:49:48.194Z,47.78
2018-03-23T18:52:14.148Z,47.52
2018-03-23T18:54:40.107Z,47.66
2018-03-23T18:57:07.277Z,47.72
2018-03-23T18:59:33.243Z,47.91
2018-03-23T19:01:59.262Z,47.64
2018-03-23T19:04:25.245Z,47.70
2018-03-23T19:06:51.215Z,47.73
2018-03-23T19:09:17.173Z,47.67
2018-03-23T19:11:43.138Z,47.80
2018-03-23T19:14:09.131Z,47.80
2018-03-23T19:16:35.099Z,47.85
2018-03-23T19:19:01.077Z,47.80
2018-03-23T19:21:27.034Z,47.79
2018-03-23T19:23:53.040Z,47.87
2018-03-23T19:26:18.987Z,47.85
2018-03-23T19:28:44.958Z,47.75
2018-03-23T19:31:10.930Z,47.82
2018-03-23T19:33:36.903Z,47.84
2018-03-23T19:36:02.934Z,47.80
2018-03-23T19:38:28.891Z,47.83
2018-03-23T19:40:54.851Z,47.91
2018-03-23T19:43:20.809Z,47.81
2018-03-23T19:45:46.858Z,47.75
2018-03-23T19:48:12.810Z,47.89
2018-03-23T19:50:38.806Z,47.80
2018-03-23T19:53:04.791Z,47.76
2018-03-23T19:55:30.780Z,47.88
2018-03-23T19:57:56.728Z,47.89
2018-03-23T20:00:22.665Z,47.84
2018-03-23T20:02:48.680Z,47.86
2018-03-23T20:05:14.604Z,47.85
2018-03-23T20:07:40.559Z,47.82
2018-03-23T20:10:06.526Z,47.91
2018-03-23T20:12:32.525Z,47.93
2018-03-23T20:14:58.485Z,47.85
2018-03-23T20:17:24.459Z,47.90
2018-03-23T20:19:50.423Z,47.79
2018-03-23T20:22:16.392Z,47.85
2018-03-23T20:24:42.370Z,47.95
2018-03-23T20:27:08.354Z,47.80
2018-03-23T20:29:34.322Z,47.78
2018-03-23T20:32:00.281Z,47.76
2018-03-23T20:34:26.270Z,47.77
2018-03-23T20:36:52.230Z,47.80
2018-03-23T20:39:18.190Z,47.73
2018-03-23T20:41:44.162Z,47.73
2018-03-23T20:44:10.182Z,47.74
2018-03-23T20:46:36.153Z,47.77
2018-03-23T20:49:02.114Z,47.62
2018-03-23T20:51:28.101Z,47.84
2018-03-23T20:53:54.083Z,47.83
2018-03-23T20:56:20.057Z,47.78
2018-03-23T20:58:46.041Z,47.62
2018-03-23T21:01:11.994Z,47.64
2018-03-23T21:03:37.950Z,47.69
2018-03-23T21:06:03.955Z,47.66
2018-03-23T21:08:29.924Z,47.70
2018-03-23T21:10:55.904Z,47.74
2018-03-23T21:13:22.062Z,47.63
2018-03-23T21:15:48.033Z,47.66
2018-03-23T21:18:14.000Z,47.76
2018-03-23T21:20:39.969Z,47.97
2018-03-23T21:23:05.961Z,47.96
2018-03-23T21:25:31.923Z,48.03
2018-03-23T21:27:57.894Z,48.05
2018-03-23T21:30:23.909Z,48.01
2018-03-23T21:32:49.892Z,48.05
2018-03-23T21:35:15.904Z,48.26
2018-03-23T21:37:41.857Z,48.13
2018-03-23T21:40:07.815Z,48.42
2018-03-23T21:42:33.777Z,48.44
2018-03-23T21:44:59.761Z,48.21
2018-03-23T21:47:25.725Z,48.13
2018-03-23T21:49:51.695Z,48.00
2018-03-23T21:52:17.662Z,48.06
2018-03-23T21:54:43.630Z,48.00
2018-03-23T21:57:09.598Z,48.14
2018-03-23T21:59:35.568Z,48.24
2018-03-23T22:02:01.535Z,48.18
2018-03-23T22:04:27.535Z,48.26
2018-03-23T22:06:53.483Z,48.27
2018-03-23T22:09:19.445Z,48.28
2018-03-23T22:11:45.402Z,48.24
2018-03-23T22:14:11.410Z,48.39
2018-03-23T22:16:37.414Z,48.22
2018-03-23T22:19:03.392Z,48.33
2018-03-23T22:21:29.407Z,48.35
2018-03-23T22:23:55.459Z,48.40
2018-03-23T22:26:21.392Z,48.36
2018-03-23T22:28:47.368Z,48.58
2018-03-23T22:31:13.378Z,48.38
2018-03-23T22:33:39.351Z,48.38
2018-03-23T22:36:05.310Z,48.46
2018-03-23T22:38:31.283Z,48.44
2018-03-23T22:40:57.263Z,48.49
2018-03-23T22:43:23.205Z,48.70
2018-03-23T22:45:49.185Z,48.63
2018-03-23T22:48:15.165Z,48.74
2018-03-23T22:50:41.112Z,48.60
2018-03-23T22:53:07.082Z,48.50
2018-03-23T22:55:33.226Z,48.75
2018-03-23T22:57:59.158Z,48.71
2018-03-23T23:00:25.185Z,48.52
2018-03-23T23:02:51.145Z,48.69
2018-03-23T23:05:17.099Z,48.77
2018-03-23T23:07:43.071Z,48.59
2018-03-23T23:10:09.013Z,48.63
2018-03-23T23:12:34.978Z,48.71
2018-03-23T23:15:00.967Z,48.56
2018-03-23T23:17:26.918Z,48.67
2018-03-23T23:19:52.956Z,48.66
2018-03-23T23:22:18.918Z,48.64
2018-03-23T23:24:44.858Z,48.69
2018-03-23T23:27:10.854Z,48.80
2018-03-23T23:29:36.862Z,48.75
2018-03-23T23:32:02.841Z,48.73
2018-03-23T23:34:28.804Z,48.75
2018-03-23T23:36:54.779Z,48.67
2018-03-23T23:39:20.752Z,48.87
2018-03-23T23:41:46.726Z,48.92
2018-03-23T23:44:12.684Z,48.81
2018-03-23T23:46:38.643Z,48.81
2018-03-23T23:49:04.611Z,48.88
2018-03-23T23:51:30.594Z,48.73
2018-03-23T23:53:56.553Z,48.93
2018-03-23T23:56:22.526Z,48.90
2018-03-23T23:58:48.470Z,48.59
